This is the latest recevied weather packets stored in our database for station/object SV2RIM-2. If no packets are shown the sender has not sent any weather packets the latest 10 day(s).
| Time | Temp. | Humidity | Pressure | Rain* | Wind** | Luminosity | Snow |
|---|---|---|---|---|---|---|---|
| 1776926719 | 13.89° C | 57% | 1016.4 hPa | 9.14 mm | - | - | - |
| 1776926119 | 13.33° C | 59% | 1016.4 hPa | 9.14 mm | - | - | - |
| 1776925519 | 11.67° C | 65% | 1016.4 hPa | 9.14 mm | - | - | - |
| 1776924919 | 11.67° C | 64% | 1016.4 hPa | 9.14 mm | - | - | - |
| 1776924319 | 10.56° C | 67% | 1016.4 hPa | 9.14 mm | - | - | - |
| 1776923719 | 11.67° C | 64% | 1016.3 hPa | 9.14 mm | - | - | - |
| 1776923119 | 10.56° C | 67% | 1016.3 hPa | 9.14 mm | - | - | - |
| 1776922519 | 8.89° C | 75% | 1016.2 hPa | 9.14 mm | - | - | - |
| 1776921919 | 8.33° C | 77% | 1016.2 hPa | 9.14 mm | - | - | - |
| 1776921319 | 8.33° C | 77% | 1016.1 hPa | 9.14 mm | - | - | - |
| 1776920719 | 7.78° C | 78% | 1016.1 hPa | 9.14 mm | - | - | - |
| 1776920119 | 7.78° C | 78% | 1016.1 hPa | 9.14 mm | - | - | - |
| 1776919519 | 7.78° C | 78% | 1016.1 hPa | 9.14 mm | - | - | - |
| 1776918919 | 7.22° C | 79% | 1016 hPa | 9.14 mm | - | - | - |
| 1776918319 | 7.22° C | 79% | 1015.9 hPa | 9.14 mm | - | - | - |
| 1776917719 | 7.22° C | 79% | 1015.9 hPa | 9.14 mm | - | - | - |
| 1776917119 | 7.22° C | 79% | 1015.8 hPa | 9.14 mm | - | - | - |
| 1776916519 | 7.22° C | 79% | 1015.7 hPa | 9.14 mm | - | - | - |
| 1776915919 | 7.22° C | 79% | 1015.7 hPa | 9.14 mm | - | - | - |
| 1776915319 | 7.22° C | 80% | 1015.7 hPa | 9.14 mm | - | - | - |
| 1776914719 | 7.22° C | 81% | 1015.7 hPa | 9.14 mm | - | - | - |
| 1776914119 | 6.67° C | 81% | 1015.6 hPa | 9.14 mm | - | - | - |
| 1776913519 | 6.67° C | 82% | 1015.7 hPa | 9.14 mm | - | - | - |
| 1776912919 | 7.22° C | 81% | 1015.7 hPa | 9.4 mm | - | - | - |
| 1776912319 | 7.22° C | 82% | 1015.8 hPa | 9.91 mm | - | - | - |
* Rain latest 24 hours (hover to see other rain measurements)
** Current wind speed in m/s (hover to see current wind gust speed)